sensor_id;sensor_type;location;lat;lon;timestamp;temperature;humidity
17887;DHT22;9069;52.044;7.472;2022-11-15T00:00:12;12.60;90.70
17887;DHT22;9069;52.044;7.472;2022-11-15T00:02:58;12.60;90.70
17887;DHT22;9069;52.044;7.472;2022-11-15T00:05:44;12.70;90.70
17887;DHT22;9069;52.044;7.472;2022-11-15T00:08:30;12.60;90.70
17887;DHT22;9069;52.044;7.472;2022-11-15T00:11:16;12.70;91.10
17887;DHT22;9069;52.044;7.472;2022-11-15T00:14:01;12.70;90.70
17887;DHT22;9069;52.044;7.472;2022-11-15T00:16:49;12.70;90.70
17887;DHT22;9069;52.044;7.472;2022-11-15T00:19:34;12.70;90.70
17887;DHT22;9069;52.044;7.472;2022-11-15T00:22:20;12.70;90.70
17887;DHT22;9069;52.044;7.472;2022-11-15T00:25:05;12.70;90.80
17887;DHT22;9069;52.044;7.472;2022-11-15T00:27:55;12.70;90.80
17887;DHT22;9069;52.044;7.472;2022-11-15T00:30:40;12.70;90.90
17887;DHT22;9069;52.044;7.472;2022-11-15T00:33:26;12.80;90.80
17887;DHT22;9069;52.044;7.472;2022-11-15T00:36:12;12.80;90.90
17887;DHT22;9069;52.044;7.472;2022-11-15T00:38:57;12.80;90.90
17887;DHT22;9069;52.044;7.472;2022-11-15T00:41:43;12.80;90.90
17887;DHT22;9069;52.044;7.472;2022-11-15T00:44:28;12.80;90.90
17887;DHT22;9069;52.044;7.472;2022-11-15T00:47:13;12.80;90.90
17887;DHT22;9069;52.044;7.472;2022-11-15T00:49:59;12.80;91.00
17887;DHT22;9069;52.044;7.472;2022-11-15T00:52:44;12.80;91.00
17887;DHT22;9069;52.044;7.472;2022-11-15T00:55:29;12.80;91.10
17887;DHT22;9069;52.044;7.472;2022-11-15T00:58:15;12.80;91.10
17887;DHT22;9069;52.044;7.472;2022-11-15T01:01:08;12.80;91.10
17887;DHT22;9069;52.044;7.472;2022-11-15T01:03:54;12.70;91.20
17887;DHT22;9069;52.044;7.472;2022-11-15T01:06:45;12.80;91.10
17887;DHT22;9069;52.044;7.472;2022-11-15T01:09:30;12.80;91.20
17887;DHT22;9069;52.044;7.472;2022-11-15T01:12:16;12.70;91.10
17887;DHT22;9069;52.044;7.472;2022-11-15T01:15:01;12.70;91.10
17887;DHT22;9069;52.044;7.472;2022-11-15T01:17:46;12.70;91.20
17887;DHT22;9069;52.044;7.472;2022-11-15T01:20:32;12.70;91.20
17887;DHT22;9069;52.044;7.472;2022-11-15T01:23:17;12.70;91.30
17887;DHT22;9069;52.044;7.472;2022-11-15T01:26:05;12.70;91.30
17887;DHT22;9069;52.044;7.472;2022-11-15T01:28:51;12.70;91.40
17887;DHT22;9069;52.044;7.472;2022-11-15T01:31:36;12.70;91.40
17887;DHT22;9069;52.044;7.472;2022-11-15T01:34:22;12.70;91.40
17887;DHT22;9069;52.044;7.472;2022-11-15T01:37:07;12.70;91.50
17887;DHT22;9069;52.044;7.472;2022-11-15T01:39:52;12.70;91.50
17887;DHT22;9069;52.044;7.472;2022-11-15T01:42:38;12.70;91.60
17887;DHT22;9069;52.044;7.472;2022-11-15T01:45:23;12.70;91.60
17887;DHT22;9069;52.044;7.472;2022-11-15T01:48:10;12.70;91.70
17887;DHT22;9069;52.044;7.472;2022-11-15T01:50:56;12.70;91.80
17887;DHT22;9069;52.044;7.472;2022-11-15T01:53:44;12.70;91.80
17887;DHT22;9069;52.044;7.472;2022-11-15T01:56:36;12.70;91.90
17887;DHT22;9069;52.044;7.472;2022-11-15T01:59:23;12.70;91.90
17887;DHT22;9069;52.044;7.472;2022-11-15T02:02:08;12.70;91.90
17887;DHT22;9069;52.044;7.472;2022-11-15T02:04:53;12.70;91.90
17887;DHT22;9069;52.044;7.472;2022-11-15T02:07:39;12.70;92.00
17887;DHT22;9069;52.044;7.472;2022-11-15T02:10:24;12.70;92.10
17887;DHT22;9069;52.044;7.472;2022-11-15T02:13:10;12.70;92.20
17887;DHT22;9069;52.044;7.472;2022-11-15T02:16:13;12.80;92.20
17887;DHT22;9069;52.044;7.472;2022-11-15T02:31:47;12.80;92.60
17887;DHT22;9069;52.044;7.472;2022-11-15T02:37:58;12.90;92.60
17887;DHT22;9069;52.044;7.472;2022-11-15T02:40:55;12.90;92.70
17887;DHT22;9069;52.044;7.472;2022-11-15T02:43:45;12.90;92.70
17887;DHT22;9069;52.044;7.472;2022-11-15T02:47:01;12.90;92.60
17887;DHT22;9069;52.044;7.472;2022-11-15T02:50:07;12.90;92.90
17887;DHT22;9069;52.044;7.472;2022-11-15T02:52:54;13.00;92.90
17887;DHT22;9069;52.044;7.472;2022-11-15T02:55:44;13.00;92.80
17887;DHT22;9069;52.044;7.472;2022-11-15T03:02:36;13.00;93.30
17887;DHT22;9069;52.044;7.472;2022-11-15T03:05:44;13.00;93.40
17887;DHT22;9069;52.044;7.472;2022-11-15T03:11:41;13.00;93.30
17887;DHT22;9069;52.044;7.472;2022-11-15T03:14:35;13.00;93.30
17887;DHT22;9069;52.044;7.472;2022-11-15T03:20:14;13.10;93.40
17887;DHT22;9069;52.044;7.472;2022-11-15T03:23:04;13.10;93.30
17887;DHT22;9069;52.044;7.472;2022-11-15T03:25:51;13.10;93.40
17887;DHT22;9069;52.044;7.472;2022-11-15T03:28:46;13.10;93.40
17887;DHT22;9069;52.044;7.472;2022-11-15T03:31:37;13.10;93.40
17887;DHT22;9069;52.044;7.472;2022-11-15T03:34:39;13.20;93.50
17887;DHT22;9069;52.044;7.472;2022-11-15T03:37:34;13.20;93.50
17887;DHT22;9069;52.044;7.472;2022-11-15T03:40:24;13.20;93.60
17887;DHT22;9069;52.044;7.472;2022-11-15T03:46:15;13.20;93.70
17887;DHT22;9069;52.044;7.472;2022-11-15T03:49:15;13.30;93.90
17887;DHT22;9069;52.044;7.472;2022-11-15T03:52:03;13.30;94.00
17887;DHT22;9069;52.044;7.472;2022-11-15T03:54:54;13.30;93.80
17887;DHT22;9069;52.044;7.472;2022-11-15T03:57:39;13.30;93.80
17887;DHT22;9069;52.044;7.472;2022-11-15T04:00:25;13.30;93.80
17887;DHT22;9069;52.044;7.472;2022-11-15T04:03:11;13.40;94.00
17887;DHT22;9069;52.044;7.472;2022-11-15T04:05:56;13.40;94.00
17887;DHT22;9069;52.044;7.472;2022-11-15T04:08:41;13.40;94.10
17887;DHT22;9069;52.044;7.472;2022-11-15T04:11:27;13.40;94.10
17887;DHT22;9069;52.044;7.472;2022-11-15T04:14:12;13.50;94.20
17887;DHT22;9069;52.044;7.472;2022-11-15T04:16:57;13.50;94.20
17887;DHT22;9069;52.044;7.472;2022-11-15T04:19:43;13.50;94.20
17887;DHT22;9069;52.044;7.472;2022-11-15T04:22:46;13.60;94.20
17887;DHT22;9069;52.044;7.472;2022-11-15T04:25:52;13.60;94.20
17887;DHT22;9069;52.044;7.472;2022-11-15T04:28:38;13.60;94.30
17887;DHT22;9069;52.044;7.472;2022-11-15T04:31:42;13.60;94.30
17887;DHT22;9069;52.044;7.472;2022-11-15T04:34:28;13.60;94.30
17887;DHT22;9069;52.044;7.472;2022-11-15T04:37:13;13.70;94.40
17887;DHT22;9069;52.044;7.472;2022-11-15T04:39:58;13.60;94.30
17887;DHT22;9069;52.044;7.472;2022-11-15T04:42:44;13.70;94.40
17887;DHT22;9069;52.044;7.472;2022-11-15T04:45:30;13.70;94.50
17887;DHT22;9069;52.044;7.472;2022-11-15T04:48:15;13.80;94.70
17887;DHT22;9069;52.044;7.472;2022-11-15T04:51:00;13.80;94.70
17887;DHT22;9069;52.044;7.472;2022-11-15T04:53:46;13.80;94.90
17887;DHT22;9069;52.044;7.472;2022-11-15T04:56:31;13.80;95.00
17887;DHT22;9069;52.044;7.472;2022-11-15T04:59:16;13.90;95.10
17887;DHT22;9069;52.044;7.472;2022-11-15T05:02:01;13.90;95.30
17887;DHT22;9069;52.044;7.472;2022-11-15T05:04:47;13.90;95.40
17887;DHT22;9069;52.044;7.472;2022-11-15T05:07:32;14.00;95.50
17887;DHT22;9069;52.044;7.472;2022-11-15T05:10:17;14.00;95.50
17887;DHT22;9069;52.044;7.472;2022-11-15T05:13:03;14.00;95.50
17887;DHT22;9069;52.044;7.472;2022-11-15T05:15:48;14.10;95.60
17887;DHT22;9069;52.044;7.472;2022-11-15T05:18:34;14.10;95.70
17887;DHT22;9069;52.044;7.472;2022-11-15T05:21:20;14.10;95.70
17887;DHT22;9069;52.044;7.472;2022-11-15T05:24:05;14.10;95.80
17887;DHT22;9069;52.044;7.472;2022-11-15T05:26:51;14.20;95.80
17887;DHT22;9069;52.044;7.472;2022-11-15T05:29:36;14.20;95.80
17887;DHT22;9069;52.044;7.472;2022-11-15T05:32:22;14.30;95.80
17887;DHT22;9069;52.044;7.472;2022-11-15T05:35:10;14.30;95.90
17887;DHT22;9069;52.044;7.472;2022-11-15T05:37:57;14.30;95.90
17887;DHT22;9069;52.044;7.472;2022-11-15T05:40:42;14.40;95.90
17887;DHT22;9069;52.044;7.472;2022-11-15T05:43:29;14.40;95.90
17887;DHT22;9069;52.044;7.472;2022-11-15T05:46:17;14.40;95.90
17887;DHT22;9069;52.044;7.472;2022-11-15T05:49:04;14.50;95.90
17887;DHT22;9069;52.044;7.472;2022-11-15T05:51:51;14.50;96.00
17887;DHT22;9069;52.044;7.472;2022-11-15T05:54:38;14.50;95.90
17887;DHT22;9069;52.044;7.472;2022-11-15T05:57:24;14.50;95.90
17887;DHT22;9069;52.044;7.472;2022-11-15T06:00:10;14.50;95.90
17887;DHT22;9069;52.044;7.472;2022-11-15T06:02:55;14.50;95.90
17887;DHT22;9069;52.044;7.472;2022-11-15T06:05:41;14.60;96.00
17887;DHT22;9069;52.044;7.472;2022-11-15T06:08:27;14.60;96.00
17887;DHT22;9069;52.044;7.472;2022-11-15T06:11:12;14.60;96.00
17887;DHT22;9069;52.044;7.472;2022-11-15T06:13:57;14.60;95.90
17887;DHT22;9069;52.044;7.472;2022-11-15T06:16:43;14.70;95.90
17887;DHT22;9069;52.044;7.472;2022-11-15T06:19:28;14.70;95.90
17887;DHT22;9069;52.044;7.472;2022-11-15T06:22:17;14.70;95.90
17887;DHT22;9069;52.044;7.472;2022-11-15T06:25:03;14.70;95.90
17887;DHT22;9069;52.044;7.472;2022-11-15T06:27:57;14.70;95.90
17887;DHT22;9069;52.044;7.472;2022-11-15T06:30:42;14.70;96.00
17887;DHT22;9069;52.044;7.472;2022-11-15T06:33:28;14.70;95.90
17887;DHT22;9069;52.044;7.472;2022-11-15T06:36:13;14.80;95.90
17887;DHT22;9069;52.044;7.472;2022-11-15T06:39:03;14.80;95.90
17887;DHT22;9069;52.044;7.472;2022-11-15T06:41:49;14.80;96.00
17887;DHT22;9069;52.044;7.472;2022-11-15T06:44:34;14.80;96.00
17887;DHT22;9069;52.044;7.472;2022-11-15T06:47:19;14.80;96.10
17887;DHT22;9069;52.044;7.472;2022-11-15T06:50:05;14.80;96.10
17887;DHT22;9069;52.044;7.472;2022-11-15T06:52:50;14.80;96.20
17887;DHT22;9069;52.044;7.472;2022-11-15T06:55:36;14.80;96.20
17887;DHT22;9069;52.044;7.472;2022-11-15T06:58:21;14.80;96.30
17887;DHT22;9069;52.044;7.472;2022-11-15T07:01:11;14.80;96.40
17887;DHT22;9069;52.044;7.472;2022-11-15T07:03:56;14.90;96.60
17887;DHT22;9069;52.044;7.472;2022-11-15T07:06:42;14.90;96.50
17887;DHT22;9069;52.044;7.472;2022-11-15T07:09:27;14.90;96.50
17887;DHT22;9069;52.044;7.472;2022-11-15T07:12:12;14.90;96.50
17887;DHT22;9069;52.044;7.472;2022-11-15T07:14:58;14.90;96.60
17887;DHT22;9069;52.044;7.472;2022-11-15T07:17:43;14.90;96.60
17887;DHT22;9069;52.044;7.472;2022-11-15T07:20:29;14.90;96.70
17887;DHT22;9069;52.044;7.472;2022-11-15T07:23:14;14.90;96.70
17887;DHT22;9069;52.044;7.472;2022-11-15T07:26:00;15.00;96.80
17887;DHT22;9069;52.044;7.472;2022-11-15T07:28:45;14.90;96.70
17887;DHT22;9069;52.044;7.472;2022-11-15T07:31:31;14.90;96.80
17887;DHT22;9069;52.044;7.472;2022-11-15T07:34:16;15.00;96.80
17887;DHT22;9069;52.044;7.472;2022-11-15T07:37:02;15.00;96.80
17887;DHT22;9069;52.044;7.472;2022-11-15T07:39:47;15.00;96.90
17887;DHT22;9069;52.044;7.472;2022-11-15T07:42:32;15.00;96.90
17887;DHT22;9069;52.044;7.472;2022-11-15T07:45:41;15.00;96.90
17887;DHT22;9069;52.044;7.472;2022-11-15T07:48:27;15.00;97.00
17887;DHT22;9069;52.044;7.472;2022-11-15T07:51:27;15.10;97.00
17887;DHT22;9069;52.044;7.472;2022-11-15T07:54:13;15.10;97.00
17887;DHT22;9069;52.044;7.472;2022-11-15T07:56:58;15.10;97.40
17887;DHT22;9069;52.044;7.472;2022-11-15T08:08:47;15.10;97.40
17887;DHT22;9069;52.044;7.472;2022-11-15T08:11:32;15.10;97.20
17887;DHT22;9069;52.044;7.472;2022-11-15T08:14:17;15.10;97.20
17887;DHT22;9069;52.044;7.472;2022-11-15T08:17:03;15.10;97.30
17887;DHT22;9069;52.044;7.472;2022-11-15T08:19:48;15.10;97.40
17887;DHT22;9069;52.044;7.472;2022-11-15T08:22:34;15.10;97.30
17887;DHT22;9069;52.044;7.472;2022-11-15T08:25:19;15.10;97.30
17887;DHT22;9069;52.044;7.472;2022-11-15T08:28:06;15.10;97.30
17887;DHT22;9069;52.044;7.472;2022-11-15T08:30:52;15.20;97.40
17887;DHT22;9069;52.044;7.472;2022-11-15T08:33:38;15.20;97.40
17887;DHT22;9069;52.044;7.472;2022-11-15T08:36:23;15.20;97.50
17887;DHT22;9069;52.044;7.472;2022-11-15T08:39:12;15.20;97.50
17887;DHT22;9069;52.044;7.472;2022-11-15T08:41:58;15.20;97.70
17887;DHT22;9069;52.044;7.472;2022-11-15T08:44:43;15.20;97.60
17887;DHT22;9069;52.044;7.472;2022-11-15T08:47:29;15.30;97.70
17887;DHT22;9069;52.044;7.472;2022-11-15T08:50:15;15.30;97.70
17887;DHT22;9069;52.044;7.472;2022-11-15T08:53:07;15.40;98.20
17887;DHT22;9069;52.044;7.472;2022-11-15T08:55:53;15.50;97.90
17887;DHT22;9069;52.044;7.472;2022-11-15T08:58:39;15.50;97.80
17887;DHT22;9069;52.044;7.472;2022-11-15T09:01:24;15.60;97.90
17887;DHT22;9069;52.044;7.472;2022-11-15T09:04:10;15.70;98.10
17887;DHT22;9069;52.044;7.472;2022-11-15T09:06:55;15.80;98.30
17887;DHT22;9069;52.044;7.472;2022-11-15T09:09:41;15.90;98.40
17887;DHT22;9069;52.044;7.472;2022-11-15T09:12:26;16.10;98.20
17887;DHT22;9069;52.044;7.472;2022-11-15T09:15:11;16.20;97.90
17887;DHT22;9069;52.044;7.472;2022-11-15T09:18:00;16.40;97.60
17887;DHT22;9069;52.044;7.472;2022-11-15T09:20:45;16.50;97.30
17887;DHT22;9069;52.044;7.472;2022-11-15T09:23:30;16.60;97.00
17887;DHT22;9069;52.044;7.472;2022-11-15T09:26:16;16.70;97.10
17887;DHT22;9069;52.044;7.472;2022-11-15T09:29:01;16.80;96.50
17887;DHT22;9069;52.044;7.472;2022-11-15T09:31:47;16.90;96.20
17887;DHT22;9069;52.044;7.472;2022-11-15T09:34:32;17.00;96.00
17887;DHT22;9069;52.044;7.472;2022-11-15T09:37:18;17.00;95.60
17887;DHT22;9069;52.044;7.472;2022-11-15T09:40:04;17.00;95.40
17887;DHT22;9069;52.044;7.472;2022-11-15T09:48:55;17.10;95.20
17887;DHT22;9069;52.044;7.472;2022-11-15T09:51:45;17.20;95.20
17887;DHT22;9069;52.044;7.472;2022-11-15T09:54:49;17.30;95.00
17887;DHT22;9069;52.044;7.472;2022-11-15T10:00:07;17.40;94.20
17887;DHT22;9069;52.044;7.472;2022-11-15T10:03:16;17.40;93.90
17887;DHT22;9069;52.044;7.472;2022-11-15T10:05:47;17.40;93.60
17887;DHT22;9069;52.044;7.472;2022-11-15T10:11:16;17.40;93.30
17887;DHT22;9069;52.044;7.472;2022-11-15T10:14:17;17.30;92.10
17887;DHT22;9069;52.044;7.472;2022-11-15T10:19:36;17.20;91.80
17887;DHT22;9069;52.044;7.472;2022-11-15T10:22:40;17.20;91.80
17887;DHT22;9069;52.044;7.472;2022-11-15T10:25:19;17.10;91.60
17887;DHT22;9069;52.044;7.472;2022-11-15T10:30:44;16.90;91.90
17887;DHT22;9069;52.044;7.472;2022-11-15T10:33:25;16.90;92.10
17887;DHT22;9069;52.044;7.472;2022-11-15T10:47:04;17.00;92.70
17887;DHT22;9069;52.044;7.472;2022-11-15T10:49:33;17.00;92.80
17887;DHT22;9069;52.044;7.472;2022-11-15T10:57:23;17.10;92.30
17887;DHT22;9069;52.044;7.472;2022-11-15T10:59:54;17.10;92.30
17887;DHT22;9069;52.044;7.472;2022-11-15T11:02:35;17.20;92.30
17887;DHT22;9069;52.044;7.472;2022-11-15T11:07:58;17.20;91.90
17887;DHT22;9069;52.044;7.472;2022-11-15T11:10:25;17.30;92.20
17887;DHT22;9069;52.044;7.472;2022-11-15T11:13:26;17.30;92.40
17887;DHT22;9069;52.044;7.472;2022-11-15T11:21:15;17.40;92.30
17887;DHT22;9069;52.044;7.472;2022-11-15T11:23:58;17.40;92.20
17887;DHT22;9069;52.044;7.472;2022-11-15T11:26:44;17.50;91.80
17887;DHT22;9069;52.044;7.472;2022-11-15T11:37:13;17.60;91.70
17887;DHT22;9069;52.044;7.472;2022-11-15T11:39:57;17.60;91.20
17887;DHT22;9069;52.044;7.472;2022-11-15T11:42:45;17.70;90.80
17887;DHT22;9069;52.044;7.472;2022-11-15T11:47:58;17.70;90.40
17887;DHT22;9069;52.044;7.472;2022-11-15T11:50:29;17.70;88.80
17887;DHT22;9069;52.044;7.472;2022-11-15T11:55:47;17.80;87.30
17887;DHT22;9069;52.044;7.472;2022-11-15T11:58:32;17.80;86.70
17887;DHT22;9069;52.044;7.472;2022-11-15T12:01:23;17.80;86.30
17887;DHT22;9069;52.044;7.472;2022-11-15T12:04:04;17.80;84.10
17887;DHT22;9069;52.044;7.472;2022-11-15T12:06:36;17.70;84.70
17887;DHT22;9069;52.044;7.472;2022-11-15T12:09:30;17.70;84.40
17887;DHT22;9069;52.044;7.472;2022-11-15T12:12:07;17.70;83.70
17887;DHT22;9069;52.044;7.472;2022-11-15T12:14:51;17.70;83.10
17887;DHT22;9069;52.044;7.472;2022-11-15T12:17:30;17.70;82.00
17887;DHT22;9069;52.044;7.472;2022-11-15T12:20:20;17.60;82.70
17887;DHT22;9069;52.044;7.472;2022-11-15T12:23:03;17.70;81.30
17887;DHT22;9069;52.044;7.472;2022-11-15T12:25:44;17.60;80.70
17887;DHT22;9069;52.044;7.472;2022-11-15T12:36:50;17.60;80.10
17887;DHT22;9069;52.044;7.472;2022-11-15T12:41:37;17.50;79.40
17887;DHT22;9069;52.044;7.472;2022-11-15T12:44:22;17.50;80.20
17887;DHT22;9069;52.044;7.472;2022-11-15T12:47:02;17.50;79.60
17887;DHT22;9069;52.044;7.472;2022-11-15T13:02:35;17.40;77.70
17887;DHT22;9069;52.044;7.472;2022-11-15T13:17:45;17.30;77.20
17887;DHT22;9069;52.044;7.472;2022-11-15T13:20:17;17.30;77.40
17887;DHT22;9069;52.044;7.472;2022-11-15T13:22:51;17.30;77.50
17887;DHT22;9069;52.044;7.472;2022-11-15T13:25:45;17.30;77.10
17887;DHT22;9069;52.044;7.472;2022-11-15T13:35:46;17.20;76.30
17887;DHT22;9069;52.044;7.472;2022-11-15T13:38:29;17.20;76.50
17887;DHT22;9069;52.044;7.472;2022-11-15T13:40:58;17.20;75.60
17887;DHT22;9069;52.044;7.472;2022-11-15T13:43:33;17.20;76.00
17887;DHT22;9069;52.044;7.472;2022-11-15T13:48:45;17.20;74.90
17887;DHT22;9069;52.044;7.472;2022-11-15T13:51:17;17.20;75.60
17887;DHT22;9069;52.044;7.472;2022-11-15T13:53:49;17.20;75.60
17887;DHT22;9069;52.044;7.472;2022-11-15T13:56:18;17.20;75.20
17887;DHT22;9069;52.044;7.472;2022-11-15T13:58:46;17.20;75.20
17887;DHT22;9069;52.044;7.472;2022-11-15T14:01:16;17.20;75.40
17887;DHT22;9069;52.044;7.472;2022-11-15T14:03:56;17.10;74.70
17887;DHT22;9069;52.044;7.472;2022-11-15T14:06:25;17.10;74.40
17887;DHT22;9069;52.044;7.472;2022-11-15T14:11:55;17.10;73.30
17887;DHT22;9069;52.044;7.472;2022-11-15T14:14:24;17.10;73.40
17887;DHT22;9069;52.044;7.472;2022-11-15T14:16:53;17.10;74.10
17887;DHT22;9069;52.044;7.472;2022-11-15T14:22:13;17.00;74.10
17887;DHT22;9069;52.044;7.472;2022-11-15T14:24:42;17.00;72.60
17887;DHT22;9069;52.044;7.472;2022-11-15T14:27:27;17.00;73.70
17887;DHT22;9069;52.044;7.472;2022-11-15T14:29:54;17.00;72.40
17887;DHT22;9069;52.044;7.472;2022-11-15T14:32:24;17.00;73.40
17887;DHT22;9069;52.044;7.472;2022-11-15T14:34:59;16.90;72.90
17887;DHT22;9069;52.044;7.472;2022-11-15T14:37:32;16.90;72.00
17887;DHT22;9069;52.044;7.472;2022-11-15T14:40:03;16.90;72.30
17887;DHT22;9069;52.044;7.472;2022-11-15T14:42:31;16.90;72.40
17887;DHT22;9069;52.044;7.472;2022-11-15T14:44:58;16.90;72.40
17887;DHT22;9069;52.044;7.472;2022-11-15T14:47:24;16.90;72.30
17887;DHT22;9069;52.044;7.472;2022-11-15T14:49:51;16.80;72.30
17887;DHT22;9069;52.044;7.472;2022-11-15T14:52:30;16.80;72.20
17887;DHT22;9069;52.044;7.472;2022-11-15T14:55:00;16.80;71.20
17887;DHT22;9069;52.044;7.472;2022-11-15T14:57:29;16.80;71.90
17887;DHT22;9069;52.044;7.472;2022-11-15T14:59:56;16.70;71.70
17887;DHT22;9069;52.044;7.472;2022-11-15T15:02:37;16.70;71.70
17887;DHT22;9069;52.044;7.472;2022-11-15T15:05:15;16.70;71.70
17887;DHT22;9069;52.044;7.472;2022-11-15T15:07:42;16.60;70.80
17887;DHT22;9069;52.044;7.472;2022-11-15T15:10:09;16.60;71.50
17887;DHT22;9069;52.044;7.472;2022-11-15T15:12:56;16.60;71.10
17887;DHT22;9069;52.044;7.472;2022-11-15T15:15:34;16.60;71.40
17887;DHT22;9069;52.044;7.472;2022-11-15T15:18:02;16.50;70.30
17887;DHT22;9069;52.044;7.472;2022-11-15T15:20:29;16.50;71.00
17887;DHT22;9069;52.044;7.472;2022-11-15T15:22:55;16.40;70.90
17887;DHT22;9069;52.044;7.472;2022-11-15T15:25:29;16.40;70.70
17887;DHT22;9069;52.044;7.472;2022-11-15T15:27:57;16.40;70.60
17887;DHT22;9069;52.044;7.472;2022-11-15T15:30:24;16.30;70.70
17887;DHT22;9069;52.044;7.472;2022-11-15T15:32:51;16.30;70.70
17887;DHT22;9069;52.044;7.472;2022-11-15T15:35:18;16.30;70.60
17887;DHT22;9069;52.044;7.472;2022-11-15T15:37:45;16.20;70.70
17887;DHT22;9069;52.044;7.472;2022-11-15T15:40:21;16.20;70.70
17887;DHT22;9069;52.044;7.472;2022-11-15T15:42:48;16.10;70.10
17887;DHT22;9069;52.044;7.472;2022-11-15T15:45:16;16.10;70.40
17887;DHT22;9069;52.044;7.472;2022-11-15T15:47:44;16.10;70.60
17887;DHT22;9069;52.044;7.472;2022-11-15T15:50:24;16.00;70.40
17887;DHT22;9069;52.044;7.472;2022-11-15T15:52:52;16.00;69.50
17887;DHT22;9069;52.044;7.472;2022-11-15T15:55:20;16.00;70.30
17887;DHT22;9069;52.044;7.472;2022-11-15T15:57:47;16.00;70.80
17887;DHT22;9069;52.044;7.472;2022-11-15T16:00:15;16.00;71.10
17887;DHT22;9069;52.044;7.472;2022-11-15T16:02:42;15.90;71.20
17887;DHT22;9069;52.044;7.472;2022-11-15T16:05:09;15.90;71.30
17887;DHT22;9069;52.044;7.472;2022-11-15T16:07:36;15.90;71.40
17887;DHT22;9069;52.044;7.472;2022-11-15T16:12:47;15.90;72.20
17887;DHT22;9069;52.044;7.472;2022-11-15T16:15:14;15.90;71.80
17887;DHT22;9069;52.044;7.472;2022-11-15T16:18:04;15.80;71.70
17887;DHT22;9069;52.044;7.472;2022-11-15T16:20:43;15.80;71.50
17887;DHT22;9069;52.044;7.472;2022-11-15T16:23:13;15.80;71.70
17887;DHT22;9069;52.044;7.472;2022-11-15T16:25:49;15.80;71.80
17887;DHT22;9069;52.044;7.472;2022-11-15T16:28:30;15.80;71.60
17887;DHT22;9069;52.044;7.472;2022-11-15T16:33:30;15.70;71.80
17887;DHT22;9069;52.044;7.472;2022-11-15T16:35:57;15.70;72.00
17887;DHT22;9069;52.044;7.472;2022-11-15T16:38:24;15.70;72.20
17887;DHT22;9069;52.044;7.472;2022-11-15T16:40:51;15.70;72.10
17887;DHT22;9069;52.044;7.472;2022-11-15T16:43:17;15.60;72.00
17887;DHT22;9069;52.044;7.472;2022-11-15T16:45:44;15.60;72.00
17887;DHT22;9069;52.044;7.472;2022-11-15T16:48:22;15.60;72.20
17887;DHT22;9069;52.044;7.472;2022-11-15T16:50:57;15.60;71.80
17887;DHT22;9069;52.044;7.472;2022-11-15T16:53:26;15.50;72.10
17887;DHT22;9069;52.044;7.472;2022-11-15T16:55:54;15.50;72.40
17887;DHT22;9069;52.044;7.472;2022-11-15T16:58:21;15.50;72.90
17887;DHT22;9069;52.044;7.472;2022-11-15T17:00:55;15.50;72.80
17887;DHT22;9069;52.044;7.472;2022-11-15T17:03:23;15.50;72.80
17887;DHT22;9069;52.044;7.472;2022-11-15T17:05:50;15.40;73.20
17887;DHT22;9069;52.044;7.472;2022-11-15T17:08:17;15.40;73.30
17887;DHT22;9069;52.044;7.472;2022-11-15T17:10:46;15.40;73.40
17887;DHT22;9069;52.044;7.472;2022-11-15T17:13:13;15.40;73.70
17887;DHT22;9069;52.044;7.472;2022-11-15T17:15:39;15.40;73.90
17887;DHT22;9069;52.044;7.472;2022-11-15T17:18:07;15.40;74.00
17887;DHT22;9069;52.044;7.472;2022-11-15T17:20:34;15.40;74.20
17887;DHT22;9069;52.044;7.472;2022-11-15T17:23:01;15.40;74.40
17887;DHT22;9069;52.044;7.472;2022-11-15T17:25:28;15.40;74.40
17887;DHT22;9069;52.044;7.472;2022-11-15T17:27:55;15.40;74.60
17887;DHT22;9069;52.044;7.472;2022-11-15T17:30:21;15.40;74.70
17887;DHT22;9069;52.044;7.472;2022-11-15T17:32:48;15.40;74.80
17887;DHT22;9069;52.044;7.472;2022-11-15T17:35:15;15.40;74.80
17887;DHT22;9069;52.044;7.472;2022-11-15T17:37:42;15.40;75.00
17887;DHT22;9069;52.044;7.472;2022-11-15T17:40:09;15.40;75.00
17887;DHT22;9069;52.044;7.472;2022-11-15T17:42:39;15.40;75.20
17887;DHT22;9069;52.044;7.472;2022-11-15T17:45:06;15.40;75.30
17887;DHT22;9069;52.044;7.472;2022-11-15T17:47:36;15.40;75.50
17887;DHT22;9069;52.044;7.472;2022-11-15T17:50:03;15.40;75.60
17887;DHT22;9069;52.044;7.472;2022-11-15T17:52:30;15.40;75.80
17887;DHT22;9069;52.044;7.472;2022-11-15T17:54:56;15.40;76.00
17887;DHT22;9069;52.044;7.472;2022-11-15T17:57:23;15.40;76.20
17887;DHT22;9069;52.044;7.472;2022-11-15T17:59:50;15.40;76.30
17887;DHT22;9069;52.044;7.472;2022-11-15T18:02:16;15.40;76.60
17887;DHT22;9069;52.044;7.472;2022-11-15T18:04:43;15.40;76.70
17887;DHT22;9069;52.044;7.472;2022-11-15T18:07:10;15.40;77.00
17887;DHT22;9069;52.044;7.472;2022-11-15T18:09:37;15.50;77.30
17887;DHT22;9069;52.044;7.472;2022-11-15T18:12:08;15.50;77.50
17887;DHT22;9069;52.044;7.472;2022-11-15T18:14:35;15.50;77.60
17887;DHT22;9069;52.044;7.472;2022-11-15T18:17:02;15.50;77.70
17887;DHT22;9069;52.044;7.472;2022-11-15T18:19:28;15.50;77.80
17887;DHT22;9069;52.044;7.472;2022-11-15T18:21:55;15.50;77.80
17887;DHT22;9069;52.044;7.472;2022-11-15T18:24:33;15.50;77.90
17887;DHT22;9069;52.044;7.472;2022-11-15T18:27:02;15.50;78.00
17887;DHT22;9069;52.044;7.472;2022-11-15T18:29:29;15.50;78.00
17887;DHT22;9069;52.044;7.472;2022-11-15T18:31:56;15.50;78.10
17887;DHT22;9069;52.044;7.472;2022-11-15T18:34:25;15.50;78.20
17887;DHT22;9069;52.044;7.472;2022-11-15T18:36:57;15.50;78.30
17887;DHT22;9069;52.044;7.472;2022-11-15T18:39:23;15.50;78.40
17887;DHT22;9069;52.044;7.472;2022-11-15T18:41:50;15.50;78.60
17887;DHT22;9069;52.044;7.472;2022-11-15T18:44:17;15.50;78.80
17887;DHT22;9069;52.044;7.472;2022-11-15T18:46:44;15.50;78.90
17887;DHT22;9069;52.044;7.472;2022-11-15T18:49:13;15.50;79.10
17887;DHT22;9069;52.044;7.472;2022-11-15T18:51:40;15.50;79.20
17887;DHT22;9069;52.044;7.472;2022-11-15T18:54:09;15.50;79.40
17887;DHT22;9069;52.044;7.472;2022-11-15T18:56:36;15.50;79.60
17887;DHT22;9069;52.044;7.472;2022-11-15T18:59:04;15.50;79.80
17887;DHT22;9069;52.044;7.472;2022-11-15T19:01:39;15.50;80.10
17887;DHT22;9069;52.044;7.472;2022-11-15T19:04:09;15.50;80.30
17887;DHT22;9069;52.044;7.472;2022-11-15T19:06:41;15.50;80.70
17887;DHT22;9069;52.044;7.472;2022-11-15T19:09:09;15.50;80.90
17887;DHT22;9069;52.044;7.472;2022-11-15T19:11:38;15.50;81.20
17887;DHT22;9069;52.044;7.472;2022-11-15T19:14:13;15.50;81.30
17887;DHT22;9069;52.044;7.472;2022-11-15T19:16:43;15.50;81.70
17887;DHT22;9069;52.044;7.472;2022-11-15T19:19:13;15.40;81.90
17887;DHT22;9069;52.044;7.472;2022-11-15T19:21:40;15.40;82.20
17887;DHT22;9069;52.044;7.472;2022-11-15T19:24:07;15.40;82.40
17887;DHT22;9069;52.044;7.472;2022-11-15T19:26:36;15.40;82.70
17887;DHT22;9069;52.044;7.472;2022-11-15T19:29:04;15.40;82.90
17887;DHT22;9069;52.044;7.472;2022-11-15T19:31:31;15.40;83.20
17887;DHT22;9069;52.044;7.472;2022-11-15T19:34:00;15.40;83.40
17887;DHT22;9069;52.044;7.472;2022-11-15T19:36:30;15.40;83.70